createdAt,value
2023-06-29T00:00:28.127Z,101015.84
2023-06-29T00:05:30.039Z,100999.69
2023-06-29T00:10:31.959Z,101003.81
2023-06-29T00:15:33.786Z,100996.59
2023-06-29T00:20:36.914Z,100996.88
2023-06-29T00:25:40.388Z,100992.06
2023-06-29T00:30:42.432Z,100989.63
2023-06-29T00:35:44.659Z,100999.03
2023-06-29T00:40:48.356Z,101000.59
2023-06-29T00:45:50.311Z,101001.25
2023-06-29T00:50:52.285Z,100992.63
2023-06-29T00:55:54.714Z,100997.31
2023-06-29T01:00:57.403Z,100995.84
2023-06-29T01:06:05.718Z,100993.75
2023-06-29T01:11:08.712Z,100985.56
2023-06-29T01:16:13.091Z,100982.97
2023-06-29T01:21:17.829Z,100983.25
2023-06-29T01:26:19.865Z,100975.41
2023-06-29T01:31:21.797Z,100976.00
2023-06-29T01:36:33.117Z,100968.78
2023-06-29T01:41:41.295Z,100966.06
2023-06-29T01:46:44.959Z,100965.69
2023-06-29T01:51:46.970Z,100949.66
2023-06-29T01:56:48.772Z,100950.75
2023-06-29T02:01:50.847Z,100951.03
2023-06-29T02:06:52.797Z,100933.72
2023-06-29T02:11:54.731Z,100934.19
2023-06-29T02:16:57.017Z,100929.38
2023-06-29T02:21:58.948Z,100925.38
2023-06-29T02:27:00.790Z,100922.22
2023-06-29T02:32:02.722Z,100921.09
2023-06-29T02:37:04.757Z,100912.63
2023-06-29T02:42:06.751Z,100919.47
2023-06-29T02:47:08.738Z,100920.56
2023-06-29T02:52:10.805Z,100916.81
2023-06-29T02:57:12.812Z,100907.94
2023-06-29T03:02:14.743Z,100908.91
2023-06-29T03:07:16.801Z,100907.94
2023-06-29T03:12:21.984Z,100910.59
2023-06-29T03:17:25.980Z,100909.84
2023-06-29T03:22:28.464Z,100909.13
2023-06-29T03:27:30.340Z,100901.13
2023-06-29T03:32:32.242Z,100899.78
2023-06-29T03:37:34.134Z,100898.53
2023-06-29T03:42:35.965Z,100902.09
2023-06-29T03:47:37.987Z,100905.78
2023-06-29T03:52:39.916Z,100908.00
2023-06-29T03:57:41.874Z,100900.09
2023-06-29T04:02:43.881Z,100899.91
2023-06-29T04:07:45.752Z,100891.59
2023-06-29T04:12:47.660Z,100889.28
2023-06-29T04:17:49.697Z,100892.16
2023-06-29T04:22:51.711Z,100889.59
2023-06-29T04:27:54.002Z,100880.78
2023-06-29T04:32:57.688Z,100880.91
2023-06-29T04:37:59.731Z,100880.50
2023-06-29T04:43:01.798Z,100879.66
2023-06-29T04:48:03.669Z,100881.91
2023-06-29T04:53:13.765Z,100875.41
2023-06-29T04:58:15.678Z,100879.66
2023-06-29T05:03:17.827Z,100875.41
2023-06-29T05:08:20.269Z,100876.38
2023-06-29T05:13:22.156Z,100875.41
2023-06-29T05:18:24.195Z,100874.53
2023-06-29T05:23:26.050Z,100875.41
2023-06-29T05:28:28.238Z,100877.41
2023-06-29T05:33:30.297Z,100872.31
2023-06-29T05:38:35.391Z,100868.88
2023-06-29T05:43:37.471Z,100870.56
2023-06-29T05:48:39.360Z,100872.31
2023-06-29T05:53:41.293Z,100871.44
2023-06-29T05:58:43.144Z,100862.91
2023-06-29T06:03:45.213Z,100869.00
2023-06-29T06:08:47.295Z,100859.94
2023-06-29T06:13:49.289Z,100866.59
2023-06-29T06:18:51.414Z,100861.22
2023-06-29T06:23:54.634Z,100856.94
2023-06-29T06:28:56.734Z,100856.06
2023-06-29T06:33:58.760Z,100870.97
2023-06-29T06:39:00.646Z,100858.31
2023-06-29T06:44:02.673Z,100857.19
2023-06-29T06:49:04.782Z,100863.44
2023-06-29T06:54:06.644Z,100868.69
2023-06-29T06:59:09.247Z,100858.03
2023-06-29T07:04:12.392Z,100858.03
2023-06-29T07:09:14.662Z,100860.28
2023-06-29T07:14:20.685Z,100862.16
2023-06-29T07:24:28.038Z,100862.53
2023-06-29T07:29:31.820Z,100851.56
2023-06-29T07:34:34.080Z,100847.13
2023-06-29T07:39:36.860Z,100854.78
2023-06-29T07:44:38.876Z,100850.53
2023-06-29T07:49:40.842Z,100854.63
2023-06-29T07:54:43.402Z,100850.72
2023-06-29T07:59:45.271Z,100850.72
2023-06-29T08:09:52.114Z,100838.56
2023-06-29T08:14:54.442Z,100843.13
2023-06-29T08:19:56.430Z,100831.66
2023-06-29T08:24:58.414Z,100846.16
2023-06-29T08:30:00.300Z,100845.03
2023-06-29T08:35:02.252Z,100837.50
2023-06-29T08:40:06.342Z,100829.75
2023-06-29T08:45:08.511Z,100831.44
2023-06-29T08:50:11.906Z,100826.47
2023-06-29T08:55:13.939Z,100821.38
2023-06-29T09:00:16.992Z,100822.22
2023-06-29T09:05:18.891Z,100824.19
2023-06-29T09:10:20.992Z,100827.94
2023-06-29T09:15:27.475Z,100828.91
2023-06-29T09:20:35.515Z,100825.28
2023-06-29T09:25:40.182Z,100816.34
2023-06-29T09:30:43.345Z,100815.22
2023-06-29T09:35:52.136Z,100813.81
2023-06-29T09:40:55.607Z,100815.81
2023-06-29T09:46:08.862Z,100817.91
2023-06-29T09:51:11.171Z,100809.09
2023-06-29T09:56:14.780Z,100807.13
2023-06-29T10:01:19.565Z,100810.66
2023-06-29T10:06:37.816Z,100809.25
2023-06-29T10:11:43.267Z,100807.13
2023-06-29T10:16:51.983Z,100808.97
2023-06-29T10:22:00.693Z,100805.84
2023-06-29T10:27:04.024Z,100809.09
2023-06-29T10:32:06.497Z,100809.97
2023-06-29T10:37:08.602Z,100813.38
2023-06-29T10:42:39.506Z,100811.09
2023-06-29T10:47:42.318Z,100813.66
2023-06-29T10:52:45.062Z,100820.59
2023-06-29T10:57:48.156Z,100809.38
2023-06-29T11:02:50.757Z,100808.97
2023-06-29T11:07:54.068Z,100810.94
2023-06-29T11:12:56.766Z,100813.81
2023-06-29T11:18:04.328Z,100809.09
2023-06-29T11:23:08.645Z,100814.09
2023-06-29T11:28:10.637Z,100809.69
2023-06-29T11:33:28.600Z,100806.28
2023-06-29T11:38:35.151Z,100803.16
2023-06-29T11:43:37.628Z,100805.44
2023-06-29T11:48:39.557Z,100796.09
2023-06-29T11:53:41.486Z,100804.44
2023-06-29T11:58:44.336Z,100795.38
2023-06-29T12:03:48.523Z,100796.25
2023-06-29T12:08:53.625Z,100796.56
2023-06-29T12:13:56.799Z,100786.47
2023-06-29T12:18:59.902Z,100788.88
2023-06-29T12:24:04.645Z,100781.09
2023-06-29T12:29:06.557Z,100774.81
2023-06-29T12:34:08.927Z,100790.00
2023-06-29T12:39:10.777Z,100779.78
2023-06-29T12:44:12.798Z,100785.16
2023-06-29T12:49:14.850Z,100782.84
2023-06-29T12:54:16.956Z,100775.78
2023-06-29T12:59:18.893Z,100778.59
2023-06-29T13:04:21.217Z,100789.38
2023-06-29T13:09:23.418Z,100784.69
2023-06-29T13:14:25.297Z,100787.94
2023-06-29T13:19:28.662Z,100784.28
2023-06-29T13:24:30.676Z,100787.53
2023-06-29T13:29:33.422Z,100787.69
2023-06-29T13:34:35.612Z,100785.72
2023-06-29T13:39:39.043Z,100777.88
2023-06-29T13:44:41.152Z,100775.91
2023-06-29T13:49:43.167Z,100781.28
2023-06-29T13:54:45.248Z,100773.06
2023-06-29T13:59:48.414Z,100771.66
2023-06-29T14:04:50.244Z,100769.66
2023-06-29T14:09:52.132Z,100759.72
2023-06-29T14:14:54.055Z,100734.31
2023-06-29T14:19:56.876Z,100739.16
2023-06-29T14:24:58.668Z,100729.50
2023-06-29T14:30:00.597Z,100730.06
2023-06-29T14:35:02.752Z,100724.69
2023-06-29T14:40:07.070Z,100712.63
2023-06-29T14:45:09.490Z,100716.16
2023-06-29T14:50:11.939Z,100700.69
2023-06-29T14:55:13.928Z,100707.09
2023-06-29T15:00:16.988Z,100702.44
2023-06-29T15:05:19.098Z,100703.56
2023-06-29T15:10:21.150Z,100691.91
2023-06-29T15:15:23.720Z,100690.09
2023-06-29T15:20:25.811Z,100680.56
2023-06-29T15:25:27.961Z,100664.09
2023-06-29T15:30:30.265Z,100680.97
2023-06-29T15:35:32.845Z,100679.28
2023-06-29T15:40:34.928Z,100687.38
2023-06-29T15:45:38.445Z,100680.28
2023-06-29T15:50:40.315Z,100676.84
2023-06-29T15:55:42.272Z,100676.84
2023-06-29T16:00:44.256Z,100676.03
2023-06-29T16:05:46.552Z,100669.78
2023-06-29T16:10:48.700Z,100680.97
2023-06-29T16:15:50.561Z,100684.69
2023-06-29T16:20:52.971Z,100684.41
2023-06-29T16:25:54.966Z,100687.47
2023-06-29T16:30:56.984Z,100693.97
2023-06-29T16:35:59.154Z,100694.56
2023-06-29T16:41:01.109Z,100703.09
2023-06-29T16:46:03.786Z,100704.84
2023-06-29T16:51:05.843Z,100701.41
2023-06-29T16:56:07.775Z,100699.44
2023-06-29T17:01:10.776Z,100693.75
2023-06-29T17:06:12.931Z,100699.16
2023-06-29T17:11:15.106Z,100691.47
2023-06-29T17:16:17.255Z,100697.88
2023-06-29T17:21:21.120Z,100694.47
2023-06-29T17:26:24.357Z,100687.78
2023-06-29T17:31:27.045Z,100657.16
2023-06-29T17:36:28.915Z,100677.88
2023-06-29T17:41:30.703Z,100667.50
2023-06-29T17:46:34.299Z,100660.81
2023-06-29T17:51:36.524Z,100661.59
2023-06-29T17:56:38.373Z,100673.00
2023-06-29T18:01:40.650Z,100686.06
2023-06-29T18:06:42.705Z,100689.47
2023-06-29T18:11:44.839Z,100688.56
2023-06-29T18:16:46.999Z,100685.88
2023-06-29T18:21:49.064Z,100682.47
2023-06-29T18:26:51.018Z,100687.75
2023-06-29T18:31:53.815Z,100686.88
2023-06-29T18:36:56.588Z,100702.31
2023-06-29T18:41:58.792Z,100700.88
2023-06-29T18:47:15.077Z,100701.00
2023-06-29T18:52:17.230Z,100705.28
2023-06-29T18:57:19.315Z,100712.25
2023-06-29T19:02:21.473Z,100716.78
2023-06-29T19:07:23.529Z,100727.41
2023-06-29T19:12:25.573Z,100740.47
2023-06-29T19:17:29.481Z,100744.47
2023-06-29T19:22:31.701Z,100745.38
2023-06-29T19:27:34.169Z,100746.44
2023-06-29T19:32:36.417Z,100758.28
2023-06-29T19:37:38.335Z,100759.19
2023-06-29T19:42:40.527Z,100756.88
2023-06-29T19:47:44.270Z,100756.03
2023-06-29T19:52:46.305Z,100763.41
2023-06-29T19:57:48.130Z,100769.78
2023-06-29T20:02:50.117Z,100771.22
2023-06-29T20:07:52.117Z,100776.34
2023-06-29T20:12:54.145Z,100786.28
2023-06-29T20:17:56.061Z,100798.19
2023-06-29T20:22:58.243Z,100793.03
2023-06-29T20:28:00.274Z,100796.75
2023-06-29T20:33:02.448Z,100787.34
2023-06-29T20:38:04.450Z,100789.03
2023-06-29T20:43:06.517Z,100787.94
2023-06-29T20:48:08.593Z,100798.84
2023-06-29T20:53:10.788Z,100805.06
2023-06-29T20:58:12.723Z,100807.56
2023-06-29T21:03:15.778Z,100811.72
2023-06-29T21:08:17.782Z,100814.28
2023-06-29T21:13:19.836Z,100805.91
2023-06-29T21:18:21.968Z,100818.53
2023-06-29T21:23:24.042Z,100814.28
2023-06-29T21:28:26.480Z,100814.28
2023-06-29T21:33:28.873Z,100817.09
2023-06-29T21:38:32.181Z,100811.31
2023-06-29T21:43:34.483Z,100803.50
2023-06-29T21:48:37.271Z,100799.09
2023-06-29T21:53:39.261Z,100812.81
2023-06-29T21:58:41.108Z,100818.34
2023-06-29T22:03:43.170Z,100825.31
2023-06-29T22:08:45.020Z,100823.59
2023-06-29T22:13:47.479Z,100836.09
2023-06-29T22:18:52.926Z,100827.28
2023-06-29T22:23:56.292Z,100826.28
2023-06-29T22:28:58.103Z,100835.00
2023-06-29T22:34:00.080Z,100836.09
2023-06-29T22:39:02.762Z,100824.44
2023-06-29T22:44:05.108Z,100830.00
2023-06-29T22:49:07.324Z,100827.28
2023-06-29T22:54:10.288Z,100826.28
2023-06-29T22:59:13.135Z,100829.28
2023-06-29T23:04:15.392Z,100847.97
2023-06-29T23:09:17.555Z,100849.09
2023-06-29T23:14:19.867Z,100865.16
2023-06-29T23:19:22.245Z,100852.53
2023-06-29T23:24:24.334Z,100843.00
2023-06-29T23:29:26.307Z,100837.47
2023-06-29T23:34:28.328Z,100840.16
2023-06-29T23:39:36.006Z,100845.81
2023-06-29T23:44:42.002Z,100836.63
2023-06-29T23:49:44.635Z,100832.50
2023-06-29T23:54:46.559Z,100826.50
2023-06-29T23:59:48.594Z,100825.25
